Jandaia, Brazil
Current Conditions -  °F | °C
As of 6:00 PM on Monday 26 Jan 2015 (Local Time) from SBGO Reporting Station
Scattered Clouds Scattered Clouds  
Wind Chill: 82°   Ceiling: Unl
Heat Index: 83°   Visibility: 6mi
Dew Point: 63°   Wind: 13mph
Humidity: 51%   Direction: 280°W
Pressure: 29.94"   Gusts: NA
Location:  17.05°S, 50.15°W
Report Text: SBGO 262000Z 28011KT 9999 FEW035 FEW040TCU SCT100 28/17 Q1014
Loading
Personal Weather Stations






























Interactive Weather Map New forecast layout! Learn more

10-Day Weather Forecast

Advertisements
Track Severe Weather on mobile